createdAt,value
2023-01-07T00:00:50.698Z,101832.54
2023-01-07T00:01:52.496Z,101830.91
2023-01-07T00:02:54.311Z,101823.25
2023-01-07T00:03:56.249Z,101837.37
2023-01-07T00:04:58.124Z,101833.95
2023-01-07T00:05:59.954Z,101840.17
2023-01-07T00:07:01.740Z,101838.93
2023-01-07T00:08:03.538Z,101841.98
2023-01-07T00:09:05.332Z,101850.89
2023-01-07T00:10:07.341Z,101851.53
2023-01-07T00:11:09.154Z,101850.41
2023-01-07T00:12:10.983Z,101856.77
2023-01-07T00:13:12.782Z,101857.69
2023-01-07T00:14:14.585Z,101857.94
2023-01-07T00:15:16.358Z,101853.47
2023-01-07T00:16:18.342Z,101862.12
2023-01-07T00:17:20.198Z,101860.08
2023-01-07T00:18:21.984Z,101861.38
2023-01-07T00:19:23.759Z,101867.61
2023-01-07T00:20:25.981Z,101846.72
2023-01-07T00:21:27.830Z,101857.16
2023-01-07T00:22:29.607Z,101861.24
2023-01-07T00:23:31.405Z,101849.52
2023-01-07T00:24:33.222Z,101851.80
2023-01-07T00:25:35.015Z,101844.83
2023-01-07T00:26:36.978Z,101851.94
2023-01-07T00:27:38.782Z,101850.55
2023-01-07T00:28:40.568Z,101842.12
2023-01-07T00:29:42.351Z,101848.13
2023-01-07T00:30:44.258Z,101845.08
2023-01-07T00:31:46.141Z,101850.67
2023-01-07T00:32:47.980Z,101847.61
2023-01-07T00:33:49.785Z,101848.49
2023-01-07T00:34:51.594Z,101860.09
2023-01-07T00:35:53.370Z,101856.76
2023-01-07T00:36:55.203Z,101862.89
2023-01-07T00:37:56.990Z,101867.48
2023-01-07T00:38:58.801Z,101877.93
2023-01-07T00:40:00.625Z,101864.16
2023-01-07T00:41:02.377Z,101865.83
2023-01-07T00:42:04.251Z,101872.58
2023-01-07T00:43:06.087Z,101872.95
2023-01-07T00:44:07.894Z,101882.62
2023-01-07T00:45:09.699Z,101880.44
2023-01-07T00:46:11.720Z,101879.30
2023-01-07T00:47:13.513Z,101871.89
2023-01-07T00:48:15.312Z,101873.39
2023-01-07T00:49:17.114Z,101873.92
2023-01-07T00:50:19.010Z,101880.52
2023-01-07T00:51:20.798Z,101879.11
2023-01-07T00:52:22.653Z,101887.98
2023-01-07T00:53:24.449Z,101879.20
2023-01-07T00:54:26.249Z,101882.36
2023-01-07T00:55:28.040Z,101888.85
2023-01-07T00:56:29.826Z,101887.70
2023-01-07T00:57:31.683Z,101890.25
2023-01-07T00:58:33.486Z,101885.65
2023-01-07T00:59:35.272Z,101892.61
2023-01-07T01:00:37.142Z,101892.34
2023-01-07T01:01:39.109Z,101892.70
2023-01-07T01:02:41.050Z,101892.43
2023-01-07T01:03:42.820Z,101893.69
2023-01-07T01:04:44.599Z,101889.83
2023-01-07T01:05:46.406Z,101886.27
2023-01-07T01:06:48.202Z,101887.16
2023-01-07T01:07:50.029Z,101887.42
2023-01-07T01:08:51.808Z,101885.92
2023-01-07T01:09:53.596Z,101891.76
2023-01-07T01:10:55.399Z,101897.45
2023-01-07T01:11:57.194Z,101899.12
2023-01-07T01:12:59.031Z,101904.34
2023-01-07T01:14:00.827Z,101899.52
2023-01-07T01:15:02.513Z,101900.27
2023-01-07T01:16:04.454Z,101899.39
2023-01-07T01:17:06.308Z,101909.34
2023-01-07T01:18:08.149Z,101910.63
2023-01-07T01:19:09.935Z,101903.14
2023-01-07T01:20:12.336Z,101903.88
2023-01-07T01:21:14.142Z,101901.20
2023-01-07T01:22:15.934Z,101898.53
2023-01-07T01:23:17.764Z,101909.48
2023-01-07T01:24:19.545Z,101908.84
2023-01-07T01:25:21.319Z,101913.45
2023-01-07T01:26:23.214Z,101919.55
2023-01-07T01:27:24.904Z,101913.84
2023-01-07T01:28:26.748Z,101919.67
2023-01-07T01:29:28.724Z,101921.48
2023-01-07T01:30:30.643Z,101921.00
2023-01-07T01:31:32.465Z,101922.55
2023-01-07T01:32:34.233Z,101923.20
2023-01-07T01:33:36.060Z,101924.13
2023-01-07T01:34:37.741Z,101918.25
2023-01-07T01:35:39.538Z,101923.34
2023-01-07T01:36:41.447Z,101916.62
2023-01-07T01:37:43.254Z,101921.06
2023-01-07T01:38:45.120Z,101920.44
2023-01-07T01:39:46.881Z,101914.47
2023-01-07T01:40:48.881Z,101906.31
2023-01-07T01:41:50.675Z,101909.08
2023-01-07T01:42:52.471Z,101901.92
2023-01-07T01:43:54.316Z,101911.97
2023-01-07T01:44:56.180Z,101912.88
2023-01-07T01:45:57.975Z,101915.42
2023-01-07T01:46:59.880Z,101910.82
2023-01-07T01:48:01.666Z,101915.02
2023-01-07T01:49:03.502Z,101909.42
2023-01-07T01:50:05.500Z,101914.64
2023-01-07T01:51:07.295Z,101921.39
2023-01-07T01:52:09.087Z,101916.17
2023-01-07T01:53:10.891Z,101918.85
2023-01-07T01:54:12.731Z,101933.10
2023-01-07T01:55:14.862Z,101925.95
2023-01-07T01:56:16.679Z,101932.19
2023-01-07T01:57:18.496Z,101927.36
2023-01-07T01:58:20.327Z,101929.16
2023-01-07T01:59:22.176Z,101938.05
2023-01-07T02:00:24.157Z,101938.05
2023-01-07T02:01:26.078Z,101927.44
2023-01-07T02:02:27.920Z,101934.33
2023-01-07T02:03:29.712Z,101944.16
2023-01-07T02:04:31.772Z,101951.66
2023-01-07T02:05:33.597Z,101949.32
2023-01-07T02:06:35.538Z,101949.27
2023-01-07T02:07:37.316Z,101952.79
2023-01-07T02:08:39.138Z,101951.73
2023-01-07T02:09:41.007Z,101950.58
2023-01-07T02:10:42.916Z,101953.73
2023-01-07T02:11:44.727Z,101953.73
2023-01-07T02:12:46.541Z,101955.67
2023-01-07T02:13:48.357Z,101952.79
2023-01-07T02:14:50.238Z,101952.58
2023-01-07T02:15:52.086Z,101961.23
2023-01-07T02:16:54.085Z,101965.56
2023-01-07T02:17:55.922Z,101970.92
2023-01-07T02:18:57.796Z,101972.28
2023-01-07T02:19:59.641Z,101969.98
2023-01-07T02:21:01.566Z,101971.06
2023-01-07T02:22:03.395Z,101965.56
2023-01-07T02:23:05.204Z,101976.48
2023-01-07T02:24:07.005Z,101980.08
2023-01-07T02:25:08.865Z,101982.62
2023-01-07T02:26:10.892Z,101977.02
2023-01-07T02:27:12.699Z,101975.27
2023-01-07T02:28:14.517Z,101976.01
2023-01-07T02:29:16.335Z,101983.23
2023-01-07T02:30:18.304Z,101981.29
2023-01-07T02:31:20.325Z,101983.28
2023-01-07T02:32:22.184Z,101991.88
2023-01-07T02:33:24.031Z,101995.77
2023-01-07T02:34:27.898Z,102002.05
2023-01-07T02:35:29.745Z,102009.34
2023-01-07T02:36:31.549Z,102002.27
2023-01-07T02:37:33.373Z,102008.66
2023-01-07T02:38:35.206Z,102009.67
2023-01-07T02:39:37.013Z,102002.27
2023-01-07T02:40:38.863Z,102002.87
2023-01-07T02:41:40.673Z,102007.55
2023-01-07T02:42:42.496Z,102013.84
2023-01-07T02:43:44.304Z,102012.54
2023-01-07T02:44:46.117Z,102005.73
2023-01-07T02:45:48.003Z,102003.98
2023-01-07T02:46:49.950Z,102002.19
2023-01-07T02:47:51.763Z,102001.44
2023-01-07T02:48:53.582Z,101996.36
2023-01-07T02:49:55.370Z,101998.63
2023-01-07T02:50:57.340Z,101997.73
2023-01-07T02:51:59.157Z,101998.63
2023-01-07T02:53:00.979Z,102000.14
2023-01-07T02:54:02.795Z,101998.90
2023-01-07T02:55:04.614Z,102001.26
2023-01-07T02:56:06.794Z,102000.02
2023-01-07T02:57:08.615Z,102002.56
2023-01-07T02:58:10.442Z,102000.44
2023-01-07T02:59:12.270Z,102005.80
2023-01-07T03:00:15.119Z,102005.94
2023-01-07T03:01:17.021Z,102008.76
2023-01-07T03:02:18.980Z,102016.52
2023-01-07T03:03:20.810Z,102011.58
2023-01-07T03:04:22.644Z,102019.65
2023-01-07T03:05:24.425Z,102010.64
2023-01-07T03:06:26.295Z,102011.80
2023-01-07T03:07:28.114Z,102014.20
2023-01-07T03:08:30.106Z,102022.47
2023-01-07T03:09:31.936Z,102012.02
2023-01-07T03:10:33.838Z,102016.19
2023-01-07T03:11:35.710Z,102014.70
2023-01-07T03:12:37.526Z,102014.70
2023-01-07T03:13:39.340Z,102012.91
2023-01-07T03:14:41.159Z,102021.74
2023-01-07T03:15:42.974Z,102011.30
2023-01-07T03:16:45.009Z,102019.84
2023-01-07T03:17:46.904Z,102019.34
2023-01-07T03:18:48.755Z,102017.98
2023-01-07T03:19:50.562Z,102025.15
2023-01-07T03:20:52.369Z,102017.80
2023-01-07T03:21:54.231Z,102018.22
2023-01-07T03:22:56.033Z,102019.84
2023-01-07T03:23:57.865Z,102023.16
2023-01-07T03:24:59.680Z,102022.11
2023-01-07T03:26:01.482Z,102027.19
2023-01-07T03:27:03.349Z,102026.03
2023-01-07T03:28:05.167Z,102032.36
2023-01-07T03:29:07.006Z,102029.51
2023-01-07T03:30:09.453Z,102028.62
2023-01-07T03:31:11.324Z,102032.41
2023-01-07T03:43:43.735Z,102055.30
2023-01-07T03:44:45.552Z,102052.11
2023-01-07T03:45:47.446Z,102055.33
2023-01-07T03:46:49.317Z,102046.86
2023-01-07T03:47:51.121Z,102059.59
2023-01-07T03:48:52.984Z,102065.42
2023-01-07T03:49:54.792Z,102058.72
2023-01-07T03:50:56.730Z,102067.81
2023-01-07T03:51:58.526Z,102066.80
2023-01-07T03:53:00.322Z,102070.56
2023-01-07T03:54:02.195Z,102064.56
2023-01-07T03:55:04.019Z,102067.87
2023-01-07T03:56:06.038Z,102063.97
2023-01-07T03:57:07.850Z,102067.67
2023-01-07T03:58:09.678Z,102077.23
2023-01-07T03:59:11.572Z,102073.61
2023-01-07T04:00:14.007Z,102075.69
2023-01-07T04:01:15.971Z,102083.91
2023-01-07T04:02:17.865Z,102079.18
2023-01-07T04:03:19.673Z,102081.75
2023-01-07T04:04:21.567Z,102089.68
2023-01-07T04:05:23.568Z,102082.86
2023-01-07T04:06:25.383Z,102092.89
2023-01-07T04:07:27.208Z,102100.08
2023-01-07T04:08:29.051Z,102098.70
2023-01-07T04:09:30.922Z,102100.94
2023-01-07T04:10:32.839Z,102094.05
2023-01-07T04:11:34.659Z,102101.05
2023-01-07T04:12:36.503Z,102097.70
2023-01-07T04:13:38.390Z,102096.02
2023-01-07T04:14:40.284Z,102095.84
2023-01-07T04:15:42.077Z,102102.23
2023-01-07T04:16:44.049Z,102101.36
2023-01-07T04:17:45.827Z,102092.07
2023-01-07T04:18:47.646Z,102092.07
2023-01-07T04:19:49.501Z,102093.45
2023-01-07T04:20:51.529Z,102089.31
2023-01-07T04:21:53.344Z,102089.31
2023-01-07T04:22:55.151Z,102098.59
2023-01-07T04:23:56.972Z,102090.68
2023-01-07T04:24:58.854Z,102099.08
2023-01-07T04:26:00.668Z,102092.94
2023-01-07T04:27:02.677Z,102100.42
2023-01-07T04:28:04.517Z,102092.51
2023-01-07T04:29:06.325Z,102099.25
2023-01-07T04:30:09.684Z,102096.70
2023-01-07T04:31:11.563Z,102104.19
2023-01-07T04:32:13.416Z,102104.92
2023-01-07T04:33:15.243Z,102105.50
2023-01-07T04:34:17.075Z,102113.69
2023-01-07T04:35:18.939Z,102110.70
2023-01-07T04:36:20.764Z,102104.38
2023-01-07T04:37:22.634Z,102113.81
2023-01-07T04:38:24.511Z,102109.78
2023-01-07T04:39:26.340Z,102109.92
2023-01-07T04:40:28.282Z,102106.61
2023-01-07T04:41:30.104Z,102116.78
2023-01-07T04:42:31.916Z,102122.17
2023-01-07T04:43:34.716Z,102123.11
2023-01-07T04:44:36.601Z,102121.52
2023-01-07T04:45:38.638Z,102125.55
2023-01-07T04:46:40.433Z,102129.16
2023-01-07T04:47:42.268Z,102127.70
2023-01-07T04:48:44.084Z,102133.66
2023-01-07T04:49:45.890Z,102133.52
2023-01-07T04:50:47.946Z,102133.23
2023-01-07T04:51:49.746Z,102132.16
2023-01-07T04:52:51.568Z,102145.00
2023-01-07T04:53:53.379Z,102138.16
2023-01-07T04:54:55.183Z,102140.55
2023-01-07T04:55:57.059Z,102141.58
2023-01-07T04:56:58.856Z,102141.87
2023-01-07T04:58:00.683Z,102140.25
2023-01-07T04:59:02.492Z,102146.36
2023-01-07T05:00:04.423Z,102143.97
2023-01-07T05:01:06.424Z,102145.92
2023-01-07T05:02:08.406Z,102150.22
2023-01-07T05:03:10.294Z,102143.52
2023-01-07T05:04:12.147Z,102148.89
2023-01-07T05:05:14.019Z,102152.77
2023-01-07T05:06:15.860Z,102151.00
2023-01-07T05:07:17.677Z,102165.80
2023-01-07T05:08:19.481Z,102157.16
2023-01-07T05:09:21.290Z,102161.64
2023-01-07T05:10:23.207Z,102158.95
2023-01-07T05:11:25.095Z,102163.43
2023-01-07T05:12:26.931Z,102177.29
2023-01-07T05:13:28.758Z,102169.97
2023-01-07T05:14:30.566Z,102170.27
2023-01-07T05:15:32.481Z,102174.75
2023-01-07T05:16:34.794Z,102172.36
2023-01-07T05:17:36.744Z,102166.98
2023-01-07T05:18:38.578Z,102171.90
2023-01-07T05:19:40.421Z,102172.65
2023-01-07T05:20:42.191Z,102166.52
2023-01-07T05:21:44.069Z,102167.10
2023-01-07T05:22:45.923Z,102174.11
2023-01-07T05:23:47.730Z,102180.80
2023-01-07T05:24:49.542Z,102175.85
2023-01-07T05:25:51.376Z,102182.53
2023-01-07T05:26:53.343Z,102184.76
2023-01-07T05:27:55.185Z,102192.09
2023-01-07T05:28:57.003Z,102194.17
2023-01-07T05:29:58.816Z,102188.09
2023-01-07T05:31:00.786Z,102190.97
2023-01-07T05:32:02.721Z,102195.16
2023-01-07T05:33:04.538Z,102196.64
2023-01-07T05:34:06.399Z,102192.80
2023-01-07T05:35:08.179Z,102200.13
2023-01-07T05:37:31.956Z,102198.04
2023-01-07T05:38:33.779Z,102199.37
2023-01-07T05:39:35.610Z,102206.86
2023-01-07T05:40:37.546Z,102202.38
2023-01-07T05:41:39.356Z,102203.13
2023-01-07T05:42:41.311Z,102202.25
2023-01-07T05:43:43.136Z,102205.38
2023-01-07T05:44:44.960Z,102204.91
2023-01-07T05:45:46.806Z,102211.64
2023-01-07T05:46:48.783Z,102208.22
2023-01-07T05:47:50.711Z,102208.52
2023-01-07T05:48:52.517Z,102212.97
2023-01-07T05:49:54.338Z,102217.17
2023-01-07T05:50:56.281Z,102219.70
2023-01-07T05:51:58.117Z,102221.52
2023-01-07T05:52:59.975Z,102221.52
2023-01-07T05:54:01.785Z,102224.34
2023-01-07T05:55:03.571Z,102228.06
2023-01-07T05:56:05.392Z,102231.22
2023-01-07T05:57:07.182Z,102234.49
2023-01-07T05:58:09.026Z,102225.70
2023-01-07T05:59:10.825Z,102226.13
2023-01-07T06:00:13.119Z,102226.87
2023-01-07T06:01:15.239Z,102225.25
2023-01-07T06:02:17.021Z,102237.17
2023-01-07T06:03:18.971Z,102230.77
2023-01-07T06:04:20.781Z,102230.15
2023-01-07T06:05:22.636Z,102236.59
2023-01-07T06:06:24.547Z,102230.45
2023-01-07T06:07:26.536Z,102239.14
2023-01-07T06:08:28.538Z,102241.50
2023-01-07T06:09:30.343Z,102242.86
2023-01-07T06:10:32.243Z,102247.04
2023-01-07T06:11:34.036Z,102253.75
2023-01-07T06:12:35.830Z,102251.80
2023-01-07T06:13:37.680Z,102251.35
2023-01-07T06:14:39.501Z,102237.76
2023-01-07T06:15:41.375Z,102248.34
2023-01-07T06:16:43.298Z,102242.53
2023-01-07T06:17:45.114Z,102244.79
2023-01-07T06:18:46.975Z,102243.28
2023-01-07T06:19:48.775Z,102254.63
2023-01-07T06:20:50.575Z,102244.63
2023-01-07T06:21:52.388Z,102244.32
2023-01-07T06:22:54.190Z,102238.64
2023-01-07T06:23:56.028Z,102249.26
2023-01-07T06:24:57.829Z,102246.57
2023-01-07T06:25:59.625Z,102249.69
2023-01-07T06:27:01.629Z,102251.92
2023-01-07T06:28:03.432Z,102251.62
2023-01-07T06:29:05.285Z,102248.62
2023-01-07T06:30:07.273Z,102246.36
2023-01-07T06:31:09.159Z,102252.02
2023-01-07T06:32:10.975Z,102250.67
2023-01-07T06:33:12.790Z,102254.25
2023-01-07T06:34:14.681Z,102261.44
2023-01-07T06:35:16.480Z,102255.78
2023-01-07T06:36:18.387Z,102256.09
2023-01-07T06:37:20.174Z,102255.92
2023-01-07T06:38:21.984Z,102253.41
2023-01-07T06:39:23.823Z,102244.61
2023-01-07T06:40:25.615Z,102251.16
2023-01-07T06:41:27.413Z,102245.50
2023-01-07T06:42:29.220Z,102247.45
2023-01-07T06:43:31.113Z,102245.34
2023-01-07T06:44:33.063Z,102252.96
2023-01-07T06:45:34.872Z,102257.30
2023-01-07T06:46:36.845Z,102258.92
2023-01-07T06:47:38.768Z,102257.00
2023-01-07T06:48:40.562Z,102260.55
2023-01-07T06:49:42.408Z,102262.47
2023-01-07T06:50:44.313Z,102265.01
2023-01-07T06:51:46.135Z,102264.73
2023-01-07T06:52:47.921Z,102267.30
2023-01-07T06:53:49.743Z,102271.95
2023-01-07T06:54:51.600Z,102273.44
2023-01-07T06:55:53.403Z,102274.92
2023-01-07T06:56:55.410Z,102271.22
2023-01-07T06:57:57.207Z,102272.56
2023-01-07T06:58:58.999Z,102283.94
2023-01-07T07:00:00.847Z,102284.82
2023-01-07T07:01:02.675Z,102286.63
2023-01-07T07:02:04.477Z,102293.77
2023-01-07T07:03:06.355Z,102285.57
2023-01-07T07:04:08.133Z,102289.30
2023-01-07T07:05:10.008Z,102293.94
2023-01-07T07:06:13.016Z,102282.45
2023-01-07T07:07:14.835Z,102288.27
2023-01-07T07:08:16.647Z,102293.20
2023-01-07T07:09:18.436Z,102297.08
2023-01-07T07:10:20.578Z,102296.64
2023-01-07T07:11:22.378Z,102292.89
2023-01-07T07:12:24.208Z,102299.92
2023-01-07T07:13:26.003Z,102292.30
2023-01-07T07:14:27.839Z,102294.99
2023-01-07T07:15:29.657Z,102305.59
2023-01-07T07:16:32.804Z,102311.89
2023-01-07T07:17:34.683Z,102302.03
2023-01-07T07:18:36.479Z,102307.27
2023-01-07T07:19:38.284Z,102307.70
2023-01-07T07:20:40.248Z,102314.29
2023-01-07T07:21:42.055Z,102322.20
2023-01-07T07:22:43.843Z,102311.42
2023-01-07T07:23:45.642Z,102318.02
2023-01-07T07:24:47.446Z,102318.02
2023-01-07T07:25:49.261Z,102320.11
2023-01-07T07:26:51.156Z,102322.03
2023-01-07T07:27:53.000Z,102327.41
2023-01-07T07:28:54.758Z,102318.61
2023-01-07T07:29:56.566Z,102318.16
2023-01-07T07:30:58.601Z,102318.61
2023-01-07T07:32:00.555Z,102321.45
2023-01-07T07:34:23.572Z,102332.20
2023-01-07T07:35:25.367Z,102329.95
2023-01-07T07:36:27.315Z,102319.02
2023-01-07T07:37:29.123Z,102318.27
2023-01-07T07:38:30.943Z,102319.16
2023-01-07T07:39:32.725Z,102320.97
2023-01-07T07:40:34.540Z,102317.83
2023-01-07T07:41:36.375Z,102321.55
2023-01-07T07:43:10.191Z,102314.98
2023-01-07T07:43:41.780Z,102334.84
2023-01-07T07:44:43.566Z,102327.22
2023-01-07T07:45:45.420Z,102323.05
2023-01-07T07:46:47.342Z,102325.45
2023-01-07T07:47:49.278Z,102325.30
2023-01-07T07:48:51.056Z,102329.47
2023-01-07T07:49:52.866Z,102325.30
2023-01-07T07:50:56.041Z,102322.27
2023-01-07T07:52:04.355Z,102325.25
2023-01-07T08:04:26.279Z,102345.20
2023-01-07T08:05:28.095Z,102340.86
2023-01-07T08:06:29.875Z,102341.78
2023-01-07T08:07:32.382Z,102339.83
2023-01-07T08:08:35.307Z,102344.17
2023-01-07T08:09:37.274Z,102332.05
2023-01-07T08:10:46.711Z,102338.17
2023-01-07T08:11:51.572Z,102341.16
2023-01-07T08:12:53.776Z,102343.40
2023-01-07T08:13:55.610Z,102344.14
2023-01-07T08:14:57.464Z,102348.03
2023-01-07T08:15:59.306Z,102342.33
2023-01-07T08:17:02.543Z,102345.94
2023-01-07T08:18:04.396Z,102347.26
2023-01-07T08:19:06.171Z,102336.63
2023-01-07T08:20:08.270Z,102343.05
2023-01-07T08:21:10.090Z,102340.05
2023-01-07T08:22:11.929Z,102337.80
2023-01-07T08:23:13.779Z,102343.31
2023-01-07T08:24:15.715Z,102343.31
2023-01-07T08:25:17.976Z,102346.15
2023-01-07T08:26:20.065Z,102347.64
2023-01-07T08:27:21.884Z,102351.36
2023-01-07T08:28:23.709Z,102352.39
2023-01-07T08:29:25.526Z,102346.84
2023-01-07T08:30:27.421Z,102342.05
2023-01-07T08:31:29.364Z,102338.62
2023-01-07T08:32:31.310Z,102340.24
2023-01-07T08:33:33.137Z,102340.88
2023-01-07T08:34:34.973Z,102347.73
2023-01-07T08:35:36.840Z,102339.07
2023-01-07T08:36:39.080Z,102343.27
2023-01-07T08:37:40.980Z,102347.73
2023-01-07T08:38:42.973Z,102343.70
2023-01-07T08:39:44.811Z,102339.95
2023-01-07T08:40:47.101Z,102348.08
2023-01-07T08:41:48.924Z,102348.96
2023-01-07T08:42:50.756Z,102343.88
2023-01-07T08:43:52.559Z,102348.08
2023-01-07T08:44:54.365Z,102351.22
2023-01-07T08:45:56.249Z,102341.78
2023-01-07T08:46:58.231Z,102351.95
2023-01-07T08:47:59.992Z,102345.98
2023-01-07T08:49:01.829Z,102354.80
2023-01-07T08:50:03.722Z,102345.82
2023-01-07T08:51:05.614Z,102339.64
2023-01-07T08:52:07.443Z,102341.73
2023-01-07T08:53:09.275Z,102336.19
2023-01-07T08:54:11.113Z,102335.84
2023-01-07T08:55:12.935Z,102333.78
2023-01-07T08:56:15.414Z,102332.89
2023-01-07T08:57:17.248Z,102331.86
2023-01-07T08:58:19.120Z,102333.38
2023-01-07T08:59:20.931Z,102331.72
2023-01-07T09:00:22.733Z,102330.41
2023-01-07T09:01:24.650Z,102328.17
2023-01-07T09:02:26.751Z,102328.34
2023-01-07T09:03:28.535Z,102326.83
2023-01-07T09:04:30.377Z,102340.90
2023-01-07T09:05:33.972Z,102333.98
2023-01-07T09:06:35.880Z,102340.53
2023-01-07T09:07:37.705Z,102336.05
2023-01-07T09:08:39.514Z,102333.92
2023-01-07T09:09:41.389Z,102337.78
2023-01-07T09:10:43.328Z,102331.95
2023-01-07T09:11:45.181Z,102334.77
2023-01-07T09:12:47.005Z,102336.55
2023-01-07T09:13:48.820Z,102338.48
2023-01-07T09:14:50.646Z,102334.28
2023-01-07T09:15:52.475Z,102334.28
2023-01-07T09:16:54.333Z,102332.80
2023-01-07T09:17:56.165Z,102329.79
2023-01-07T09:18:57.977Z,102329.16
2023-01-07T09:19:59.831Z,102334.38
2023-01-07T09:21:01.655Z,102330.07
2023-01-07T09:22:03.537Z,102330.07
2023-01-07T09:23:05.361Z,102328.55
2023-01-07T09:24:07.187Z,102334.52
2023-01-07T09:25:09.121Z,102327.95
2023-01-07T09:26:11.465Z,102337.63
2023-01-07T09:27:13.321Z,102335.37
2023-01-07T09:28:15.212Z,102328.64
2023-01-07T09:29:21.617Z,102339.11
2023-01-07T09:30:26.043Z,102333.10
2023-01-07T09:31:27.864Z,102327.87
2023-01-07T09:32:30.245Z,102332.26
2023-01-07T09:33:32.073Z,102329.19
2023-01-07T09:34:33.897Z,102327.31
2023-01-07T09:35:35.712Z,102322.83
2023-01-07T09:36:37.643Z,102318.66
2023-01-07T09:37:39.512Z,102319.68
2023-01-07T09:38:41.340Z,102320.98
2023-01-07T09:39:43.148Z,102319.50
2023-01-07T09:40:45.178Z,102314.55
2023-01-07T09:41:47.011Z,102319.92
2023-01-07T09:42:48.876Z,102321.23
2023-01-07T09:44:00.565Z,102314.80
2023-01-07T09:44:54.348Z,102324.20
2023-01-07T09:45:56.250Z,102321.80
2023-01-07T09:46:58.239Z,102314.30
2023-01-07T09:48:00.114Z,102317.90
2023-01-07T09:49:01.938Z,102317.40
2023-01-07T09:50:03.752Z,102315.27
2023-01-07T09:51:05.577Z,102310.91
2023-01-07T09:52:07.415Z,102311.94
2023-01-07T09:53:09.311Z,102317.91
2023-01-07T09:54:11.119Z,102307.44
2023-01-07T09:55:12.935Z,102304.63
2023-01-07T09:56:14.971Z,102297.12
2023-01-07T09:57:16.870Z,102293.69
2023-01-07T09:58:18.767Z,102306.28
2023-01-07T09:59:20.594Z,102304.34
2023-01-07T10:00:22.889Z,102310.04
2023-01-07T10:01:24.916Z,102307.35
2023-01-07T10:02:26.812Z,102299.86
2023-01-07T10:03:28.713Z,102301.80
2023-01-07T10:04:30.565Z,102304.76
2023-01-07T10:05:32.413Z,102305.03
2023-01-07T10:06:42.965Z,102301.74
2023-01-07T10:07:37.880Z,102298.59
2023-01-07T10:08:39.731Z,102306.64
2023-01-07T10:09:41.560Z,102303.59
2023-01-07T10:10:43.687Z,102304.65
2023-01-07T10:11:45.537Z,102306.28
2023-01-07T10:12:47.349Z,102309.94
2023-01-07T10:13:49.214Z,102304.76
2023-01-07T10:14:51.041Z,102298.50
2023-01-07T10:15:52.847Z,102302.67
2023-01-07T10:16:54.767Z,102303.88
2023-01-07T10:17:56.627Z,102305.81
2023-01-07T10:18:58.992Z,102308.00
2023-01-07T10:20:00.838Z,102309.66
2023-01-07T10:21:02.659Z,102306.51
2023-01-07T10:22:04.481Z,102303.31
2023-01-07T10:23:06.299Z,102306.28
2023-01-07T10:24:08.144Z,102303.40
2023-01-07T10:25:09.949Z,102302.79
2023-01-07T10:26:12.254Z,102304.87
2023-01-07T10:27:14.070Z,102306.77
2023-01-07T10:28:15.887Z,102306.63
2023-01-07T10:29:17.729Z,102305.20
2023-01-07T10:30:19.763Z,102299.69
2023-01-07T10:31:21.606Z,102300.58
2023-01-07T10:32:23.442Z,102295.01
2023-01-07T10:33:25.292Z,102295.75
2023-01-07T10:34:27.084Z,102298.77
2023-01-07T10:35:28.897Z,102301.45
2023-01-07T10:36:31.108Z,102297.42
2023-01-07T10:37:32.906Z,102300.38
2023-01-07T10:38:34.724Z,102306.77
2023-01-07T10:39:36.627Z,102306.43
2023-01-07T10:40:38.422Z,102307.89
2023-01-07T10:41:40.215Z,102308.30
2023-01-07T10:42:42.124Z,102303.34
2023-01-07T10:43:43.923Z,102298.99
2023-01-07T10:44:45.753Z,102305.11
2023-01-07T10:45:47.574Z,102300.14
2023-01-07T10:46:49.501Z,102308.58
2023-01-07T10:47:51.287Z,102308.84
2023-01-07T10:48:53.093Z,102296.98
2023-01-07T10:49:54.928Z,102297.73
2023-01-07T10:50:56.724Z,102294.57
2023-01-07T10:51:58.533Z,102295.45
2023-01-07T10:53:00.373Z,102305.03
2023-01-07T10:54:02.137Z,102300.69
2023-01-07T10:55:03.985Z,102304.29
2023-01-07T10:56:06.005Z,102291.95
2023-01-07T10:57:07.800Z,102294.63
2023-01-07T10:58:09.602Z,102298.33
2023-01-07T10:59:13.150Z,102306.90
2023-01-07T11:00:16.177Z,102306.62
2023-01-07T11:01:18.117Z,102304.69
2023-01-07T11:02:20.244Z,102300.61
2023-01-07T11:03:22.339Z,102304.08
2023-01-07T11:04:24.151Z,102299.86
2023-01-07T11:05:25.992Z,102300.87
2023-01-07T11:06:27.810Z,102306.11
2023-01-07T11:07:29.610Z,102312.88
2023-01-07T11:08:31.402Z,102311.22
2023-01-07T11:09:33.220Z,102308.53
2023-01-07T11:10:35.144Z,102311.42
2023-01-07T11:11:36.936Z,102314.22
2023-01-07T11:12:38.782Z,102309.86
2023-01-07T11:13:40.576Z,102301.61
2023-01-07T11:14:42.371Z,102308.88
2023-01-07T11:15:44.203Z,102303.30
2023-01-07T11:16:46.061Z,102301.02
2023-01-07T11:17:47.900Z,102306.11
2023-01-07T11:18:49.717Z,102301.15
2023-01-07T11:19:51.558Z,102307.17
2023-01-07T11:20:53.876Z,102311.62
2023-01-07T11:21:55.655Z,102304.37
2023-01-07T11:22:57.454Z,102305.55
2023-01-07T11:25:20.471Z,102306.57
2023-01-07T11:26:22.926Z,102305.69
2023-01-07T11:27:24.913Z,102305.82
2023-01-07T11:28:26.715Z,102307.63
2023-01-07T11:29:28.802Z,102317.17
2023-01-07T11:30:30.730Z,102308.37
2023-01-07T11:31:32.727Z,102313.47
2023-01-07T11:32:34.508Z,102314.36
2023-01-07T11:34:01.474Z,102303.53
2023-01-07T11:36:01.302Z,102309.30
2023-01-07T11:37:03.238Z,102317.97
2023-01-07T11:38:05.115Z,102313.92
2023-01-07T11:39:06.878Z,102307.64
2023-01-07T11:40:08.982Z,102308.42
2023-01-07T11:41:10.840Z,102314.41
2023-01-07T11:42:12.693Z,102308.69
2023-01-07T11:43:14.504Z,102311.50
2023-01-07T11:44:16.338Z,102312.52
2023-01-07T11:45:18.188Z,102310.09
2023-01-07T11:46:22.424Z,102314.32
2023-01-07T11:47:23.832Z,102313.40
2023-01-07T11:48:25.632Z,102310.84
2023-01-07T11:49:27.467Z,102317.48
2023-01-07T11:50:29.248Z,102316.47
2023-01-07T11:51:31.062Z,102312.88
2023-01-07T11:52:32.900Z,102315.81
2023-01-07T11:53:34.692Z,102311.05
2023-01-07T11:54:36.495Z,102305.69
2023-01-07T11:55:39.390Z,102307.63
2023-01-07T11:56:41.296Z,102317.17
2023-01-07T11:57:43.135Z,102318.23
2023-01-07T11:58:44.970Z,102322.81
2023-01-07T11:59:48.094Z,102315.42
2023-01-07T12:00:50.157Z,102318.23
2023-01-07T12:01:51.929Z,102317.63
2023-01-07T12:02:53.798Z,102314.32
2023-01-07T12:03:55.624Z,102323.48
2023-01-07T12:04:57.412Z,102315.07
2023-01-07T12:05:59.197Z,102326.42
2023-01-07T12:07:01.008Z,102329.14
2023-01-07T12:08:02.868Z,102320.70
2023-01-07T12:09:04.765Z,102323.12
2023-01-07T12:10:06.869Z,102326.42
2023-01-07T12:11:09.203Z,102328.22
2023-01-07T12:12:10.998Z,102333.33
2023-01-07T12:13:12.839Z,102321.97
2023-01-07T12:14:14.667Z,102328.44
2023-01-07T12:15:16.506Z,102325.89